Hovedside
METAR-TAF:

METAR-TAF

Lufthavner :

Murmansk lufthavn

Murmansk, Russland

breddegrad: 68-58N, lengdegrad: 033-03E, høyde over havet: 51 m

Gjeldene værobservasjon

Denne rapporten ble laget for 21 minutter siden, klokken 15:00 UTC
Vind 8 kt fra Øst-nordøst
Temperatur 26°C
Luftfuktighet 51%
Trykk 1015 hPa
Sikt 10 km eller mer
Spredte skyer i en høyde av 4000 ft

METAR: ULMM 181500Z 07004MPS 9999 SCT040 26/15 Q1015 R13/090070 NOSIG RMK QFE754

Tid: 18:21 (15:21 UTC)

Varsel

Denne rapporten ble laget for 1 time og 31 minutter siden, klokken 13:50 UTC
Varsel gyldig fra 18. klokken 15 UTC til 19. klokken 15 UTC
Vind 6 kt fra Nordøst med vindkast opp mot 16 kt
Sikt 10 km eller mer
Spredte skyer i en høyde av 3000 ft
Blir
fra 19. klokken 06 UTC til 19. klokken 08 UTC
Vind 6 kt fra Øst

TAF: ULMM 181350Z 1815/1915 05003G08MPS 9999 SCT030 BECMG 1906/1908 10003MPS

Værobservasjoner og værvarsel for over 4000 flyplasser (METAR- og TAF-rapporter).

Tilgjengelige stasjoner er representert av de røde og gule prikkene på kartet.

Hold musepekeren over prikken for å se navnet på stasjonen.

Klikk så for å se værobservasjoner og -varsler.

For å forandre kartet kan du klikke på den grønne knappen med svart kryss for å zoome inn, på den grønne knappen med strek for å zoome ut, eller på de grønne pilene for å se tilstøtende kart.


METAR-TAF: